MAPA DE AEROPUERTO

INFORMACIÓN METAR y TAF


Deprecated: The each() function is deprecated. This message will be suppressed on further calls in /home/customer/www/clickair-va.com/public_html/VAM/vam/helpers/get_metar.php on line 20
METAR FOR ENTC
ADDS - METARS form results

(0256 UTC 25 May 2022)
Data provider http://aviationweather.gov/metar/data/
 
METAR text: ENTC 250250Z AUTO 00000KT 9999 FEW200/// 09/04 Q1004 RMK WIND 2600FT 17022KT
Conditions at: ENTC (TROMSO/LANGNES , NO) observed 0250 UTC 25 May 2022
Temperature: 9.0°C (48°F)
Dewpoint: 4.0°C (39°F) [RH = 71%]
Pressure (altimeter): 29.65 inches Hg (1004.0 mb)
Winds: calm
Visibility: 6 or more miles (10+ km)
Ceiling: at least 12,000 feet AGL
Clouds: few clouds at 20000 feet AGL
Weather: no significant weather observed at this time

METAR text: ENTC 250220Z AUTO VRB02KT 9999 FEW170/// SCT190/// 09/04 Q1004 RMK WIND 2600FT 17017KT
Conditions at: ENTC (TROMSO/LANGNES , NO) observed 0220 UTC 25 May 2022
Temperature: 9.0°C (48°F)
Dewpoint: 4.0°C (39°F) [RH = 71%]
Pressure (altimeter): 29.65 inches Hg (1004.0 mb)
Winds: variable direction winds at 2 MPH (2 knots; 1.0 m/s)
Visibility: 6 or more miles (10+ km)
Ceiling: at least 12,000 feet AGL
Clouds: few clouds at 17000 feet AGL
scattered clouds at 19000 feet AGL
Weather: no significant weather observed at this time

Forecast for: ENTC (TROMSO/LANGNES , NO)
Text: TAF ENTC 2500/2524 VRB08KT CAVOK
Forecast period: 0000 UTC 25 May 2022 to 0000 UTC 26 May 2022
Forecast type: FROM: standard forecast or significant change
Winds: variable direction winds at 9 MPH (8 knots; 4.1 m/s)
Visibility: 6 or more miles (10+ km)
Ceiling: unknown
Clouds: missing
Weather: NSW  (no significant weather)
Text: TEMPO 2500/2524 21015KT
Forecast period: 0000 UTC 25 May 2022 to 0000 UTC 26 May 2022
Forecast type: TEMPORARY: The following changes expected for less than half the time period
Winds: from the SSW (210 degrees) at 17 MPH (15 knots; 7.7 m/s)
Visibility: missing
Ceiling: unknown
Clouds: missing
Weather: no significant weather forecast for this period